sensor_id;sensor_type;location;lat;lon;timestamp;pressure;altitude;pressure_sealevel;temperature;humidity
6532;BME280;3299;42.004;24.868;2023-05-09T00:01:11;98486.91;;;13.02;100.00
6532;BME280;3299;42.004;24.868;2023-05-09T00:03:40;98558.81;;;13.34;100.00
6532;BME280;3299;42.004;24.868;2023-05-09T00:06:07;98526.22;;;13.19;100.00
6532;BME280;3299;42.004;24.868;2023-05-09T00:08:32;98546.06;;;13.20;100.00
6532;BME280;3299;42.004;24.868;2023-05-09T00:10:58;98552.56;;;13.37;100.00
6532;BME280;3299;42.004;24.868;2023-05-09T00:13:24;98532.00;;;13.23;100.00
6532;BME280;3299;42.004;24.868;2023-05-09T00:15:50;98491.25;;;13.01;100.00
6532;BME280;3299;42.004;24.868;2023-05-09T00:18:20;98489.22;;;12.94;100.00
6532;BME280;3299;42.004;24.868;2023-05-09T00:20:47;98539.19;;;13.30;100.00
6532;BME280;3299;42.004;24.868;2023-05-09T00:23:12;98492.09;;;13.13;100.00
6532;BME280;3299;42.004;24.868;2023-05-09T00:25:37;98548.31;;;13.47;100.00
6532;BME280;3299;42.004;24.868;2023-05-09T00:28:03;98524.09;;;13.35;100.00
6532;BME280;3299;42.004;24.868;2023-05-09T00:30:30;98524.19;;;13.23;100.00
6532;BME280;3299;42.004;24.868;2023-05-09T00:32:55;98571.34;;;13.62;100.00
6532;BME280;3299;42.004;24.868;2023-05-09T00:35:21;98542.63;;;13.53;100.00
6532;BME280;3299;42.004;24.868;2023-05-09T00:37:46;98537.19;;;13.45;100.00
6532;BME280;3299;42.004;24.868;2023-05-09T00:40:12;98551.34;;;13.52;100.00
6532;BME280;3299;42.004;24.868;2023-05-09T00:42:37;98485.72;;;13.06;100.00
6532;BME280;3299;42.004;24.868;2023-05-09T00:45:03;98482.19;;;13.07;100.00
6532;BME280;3299;42.004;24.868;2023-05-09T00:47:29;98506.25;;;13.20;100.00
6532;BME280;3299;42.004;24.868;2023-05-09T00:49:56;98573.25;;;13.38;100.00
6532;BME280;3299;42.004;24.868;2023-05-09T00:52:24;98507.88;;;12.77;100.00
6532;BME280;3299;42.004;24.868;2023-05-09T00:54:50;98579.00;;;13.20;100.00
6532;BME280;3299;42.004;24.868;2023-05-09T00:57:16;98568.13;;;13.04;100.00
6532;BME280;3299;42.004;24.868;2023-05-09T00:59:41;98513.66;;;12.80;100.00
6532;BME280;3299;42.004;24.868;2023-05-09T01:02:07;98488.28;;;12.73;100.00
6532;BME280;3299;42.004;24.868;2023-05-09T01:04:32;98547.28;;;12.93;100.00
6532;BME280;3299;42.004;24.868;2023-05-09T01:12:30;98515.19;;;12.72;100.00
6532;BME280;3299;42.004;24.868;2023-05-09T01:15:05;98490.13;;;12.49;100.00
6532;BME280;3299;42.004;24.868;2023-05-09T01:23:32;98589.84;;;13.03;100.00
6532;BME280;3299;42.004;24.868;2023-05-09T01:31:54;98581.22;;;13.02;100.00
6532;BME280;3299;42.004;24.868;2023-05-09T01:34:22;98568.69;;;12.96;100.00
6532;BME280;3299;42.004;24.868;2023-05-09T01:36:51;98565.78;;;13.01;100.00
6532;BME280;3299;42.004;24.868;2023-05-09T01:39:21;98580.41;;;13.02;100.00
6532;BME280;3299;42.004;24.868;2023-05-09T01:41:49;98561.44;;;12.78;100.00
6532;BME280;3299;42.004;24.868;2023-05-09T01:44:17;98523.63;;;12.52;100.00
6532;BME280;3299;42.004;24.868;2023-05-09T01:46:43;98500.22;;;12.41;100.00
6532;BME280;3299;42.004;24.868;2023-05-09T01:49:09;98559.66;;;12.78;100.00
6532;BME280;3299;42.004;24.868;2023-05-09T01:51:36;98508.63;;;12.55;100.00
6532;BME280;3299;42.004;24.868;2023-05-09T01:54:03;98513.75;;;12.68;100.00
6532;BME280;3299;42.004;24.868;2023-05-09T01:56:30;98512.69;;;12.70;100.00
6532;BME280;3299;42.004;24.868;2023-05-09T01:58:56;98514.91;;;12.64;100.00
6532;BME280;3299;42.004;24.868;2023-05-09T02:01:23;98544.94;;;12.90;100.00
6532;BME280;3299;42.004;24.868;2023-05-09T02:03:50;98597.44;;;13.28;100.00
6532;BME280;3299;42.004;24.868;2023-05-09T02:06:21;98592.00;;;13.31;100.00
6532;BME280;3299;42.004;24.868;2023-05-09T02:08:48;98515.00;;;12.97;100.00
6532;BME280;3299;42.004;24.868;2023-05-09T02:11:13;98594.84;;;13.39;100.00
6532;BME280;3299;42.004;24.868;2023-05-09T02:13:39;98566.50;;;13.14;100.00
6532;BME280;3299;42.004;24.868;2023-05-09T02:16:05;98602.41;;;13.42;100.00
6532;BME280;3299;42.004;24.868;2023-05-09T02:18:32;98580.44;;;13.24;100.00
6532;BME280;3299;42.004;24.868;2023-05-09T02:20:58;98612.81;;;13.42;100.00
6532;BME280;3299;42.004;24.868;2023-05-09T02:23:24;98596.50;;;13.18;100.00
6532;BME280;3299;42.004;24.868;2023-05-09T02:25:50;98581.38;;;13.12;100.00
6532;BME280;3299;42.004;24.868;2023-05-09T02:28:19;98537.94;;;12.68;100.00
6532;BME280;3299;42.004;24.868;2023-05-09T02:30:46;98529.78;;;12.62;100.00
6532;BME280;3299;42.004;24.868;2023-05-09T02:33:13;98606.53;;;13.11;100.00
6532;BME280;3299;42.004;24.868;2023-05-09T02:35:41;98547.00;;;12.63;100.00
6532;BME280;3299;42.004;24.868;2023-05-09T02:38:06;98533.66;;;12.45;100.00
6532;BME280;3299;42.004;24.868;2023-05-09T02:40:32;98608.78;;;12.81;100.00
6532;BME280;3299;42.004;24.868;2023-05-09T02:42:58;98602.72;;;12.70;100.00
6532;BME280;3299;42.004;24.868;2023-05-09T02:45:24;98533.91;;;12.30;100.00
6532;BME280;3299;42.004;24.868;2023-05-09T02:47:49;98567.28;;;12.58;100.00
6532;BME280;3299;42.004;24.868;2023-05-09T02:50:14;98571.09;;;12.65;100.00
6532;BME280;3299;42.004;24.868;2023-05-09T02:52:40;98560.94;;;12.62;100.00
6532;BME280;3299;42.004;24.868;2023-05-09T02:55:06;98570.63;;;12.60;100.00
6532;BME280;3299;42.004;24.868;2023-05-09T02:57:32;98572.16;;;12.62;100.00
6532;BME280;3299;42.004;24.868;2023-05-09T02:59:57;98600.28;;;12.79;100.00
6532;BME280;3299;42.004;24.868;2023-05-09T03:02:22;98622.84;;;12.90;100.00
6532;BME280;3299;42.004;24.868;2023-05-09T03:04:48;98614.63;;;12.96;100.00
6532;BME280;3299;42.004;24.868;2023-05-09T03:07:14;98586.72;;;12.87;100.00
6532;BME280;3299;42.004;24.868;2023-05-09T03:09:39;98616.72;;;12.91;100.00
6532;BME280;3299;42.004;24.868;2023-05-09T03:12:05;98555.16;;;12.58;100.00
6532;BME280;3299;42.004;24.868;2023-05-09T03:14:30;98583.84;;;12.68;100.00
6532;BME280;3299;42.004;24.868;2023-05-09T03:16:56;98628.34;;;12.98;100.00
6532;BME280;3299;42.004;24.868;2023-05-09T03:19:21;98632.56;;;12.99;100.00
6532;BME280;3299;42.004;24.868;2023-05-09T03:21:47;98650.06;;;12.97;100.00
6532;BME280;3299;42.004;24.868;2023-05-09T03:24:12;98564.19;;;12.42;100.00
6532;BME280;3299;42.004;24.868;2023-05-09T03:26:37;98569.69;;;12.37;100.00
6532;BME280;3299;42.004;24.868;2023-05-09T03:29:03;98627.97;;;12.68;100.00
6532;BME280;3299;42.004;24.868;2023-05-09T03:31:28;98612.69;;;12.52;100.00
6532;BME280;3299;42.004;24.868;2023-05-09T03:33:54;98570.56;;;12.49;100.00
6532;BME280;3299;42.004;24.868;2023-05-09T03:36:19;98629.47;;;12.83;100.00
6532;BME280;3299;42.004;24.868;2023-05-09T03:38:45;98631.00;;;12.85;100.00
6532;BME280;3299;42.004;24.868;2023-05-09T03:41:12;98613.84;;;12.72;100.00
6532;BME280;3299;42.004;24.868;2023-05-09T03:43:37;98589.09;;;12.55;100.00
6532;BME280;3299;42.004;24.868;2023-05-09T03:46:03;98590.03;;;12.54;100.00
6532;BME280;3299;42.004;24.868;2023-05-09T03:48:29;98673.22;;;13.00;100.00
6532;BME280;3299;42.004;24.868;2023-05-09T03:50:54;98668.03;;;13.00;100.00
6532;BME280;3299;42.004;24.868;2023-05-09T03:53:20;98588.00;;;12.47;100.00
6532;BME280;3299;42.004;24.868;2023-05-09T03:55:45;98679.94;;;13.02;100.00
6532;BME280;3299;42.004;24.868;2023-05-09T03:58:11;98634.66;;;12.83;100.00
6532;BME280;3299;42.004;24.868;2023-05-09T04:00:36;98589.97;;;12.67;100.00
6532;BME280;3299;42.004;24.868;2023-05-09T04:03:02;98659.16;;;13.02;100.00
6532;BME280;3299;42.004;24.868;2023-05-09T04:05:28;98673.50;;;13.19;100.00
6532;BME280;3299;42.004;24.868;2023-05-09T04:07:54;98641.75;;;12.92;100.00
6532;BME280;3299;42.004;24.868;2023-05-09T04:10:19;98614.16;;;12.67;100.00
6532;BME280;3299;42.004;24.868;2023-05-09T04:12:45;98669.25;;;12.94;100.00
6532;BME280;3299;42.004;24.868;2023-05-09T04:15:10;98602.66;;;12.48;100.00
6532;BME280;3299;42.004;24.868;2023-05-09T04:17:35;98604.75;;;12.43;100.00
6532;BME280;3299;42.004;24.868;2023-05-09T04:20:01;98582.63;;;12.26;100.00
6532;BME280;3299;42.004;24.868;2023-05-09T04:22:27;98629.53;;;12.47;100.00
6532;BME280;3299;42.004;24.868;2023-05-09T04:24:52;98628.81;;;12.45;100.00
6532;BME280;3299;42.004;24.868;2023-05-09T04:27:18;98649.19;;;12.62;100.00
6532;BME280;3299;42.004;24.868;2023-05-09T04:29:43;98667.59;;;12.93;100.00
6532;BME280;3299;42.004;24.868;2023-05-09T04:32:09;98682.00;;;12.86;100.00
6532;BME280;3299;42.004;24.868;2023-05-09T04:34:34;98642.13;;;12.64;100.00
6532;BME280;3299;42.004;24.868;2023-05-09T04:36:59;98683.38;;;12.79;100.00
6532;BME280;3299;42.004;24.868;2023-05-09T04:39:25;98587.69;;;12.28;100.00
6532;BME280;3299;42.004;24.868;2023-05-09T04:41:50;98665.31;;;12.78;100.00
6532;BME280;3299;42.004;24.868;2023-05-09T04:44:16;98621.69;;;12.59;100.00
6532;BME280;3299;42.004;24.868;2023-05-09T04:46:42;98672.81;;;12.70;100.00
6532;BME280;3299;42.004;24.868;2023-05-09T04:49:08;98625.19;;;12.47;100.00
6532;BME280;3299;42.004;24.868;2023-05-09T04:51:33;98686.34;;;12.86;100.00
6532;BME280;3299;42.004;24.868;2023-05-09T04:53:58;98653.00;;;12.69;100.00
6532;BME280;3299;42.004;24.868;2023-05-09T04:56:24;98664.03;;;12.83;100.00
6532;BME280;3299;42.004;24.868;2023-05-09T04:58:49;98655.88;;;12.77;100.00
6532;BME280;3299;42.004;24.868;2023-05-09T05:01:15;98647.31;;;12.64;100.00
6532;BME280;3299;42.004;24.868;2023-05-09T05:03:41;98664.31;;;12.68;100.00
6532;BME280;3299;42.004;24.868;2023-05-09T05:06:07;98682.06;;;12.74;100.00
6532;BME280;3299;42.004;24.868;2023-05-09T05:08:32;98659.78;;;12.59;100.00
6532;BME280;3299;42.004;24.868;2023-05-09T05:10:57;98651.91;;;12.60;100.00
6532;BME280;3299;42.004;24.868;2023-05-09T05:13:23;98648.44;;;12.49;100.00
6532;BME280;3299;42.004;24.868;2023-05-09T05:15:48;98620.03;;;12.35;100.00
6532;BME280;3299;42.004;24.868;2023-05-09T05:18:14;98629.16;;;12.40;100.00
6532;BME280;3299;42.004;24.868;2023-05-09T05:20:40;98686.09;;;12.78;100.00
6532;BME280;3299;42.004;24.868;2023-05-09T05:23:06;98654.00;;;12.55;100.00
6532;BME280;3299;42.004;24.868;2023-05-09T05:25:32;98631.47;;;12.32;100.00
6532;BME280;3299;42.004;24.868;2023-05-09T05:27:57;98661.63;;;12.46;100.00
6532;BME280;3299;42.004;24.868;2023-05-09T05:30:23;98645.78;;;12.38;100.00
6532;BME280;3299;42.004;24.868;2023-05-09T05:32:48;98614.59;;;12.27;100.00
6532;BME280;3299;42.004;24.868;2023-05-09T05:35:14;98692.69;;;12.82;100.00
6532;BME280;3299;42.004;24.868;2023-05-09T05:37:39;98695.63;;;12.77;100.00
6532;BME280;3299;42.004;24.868;2023-05-09T05:40:06;98688.53;;;12.68;100.00
6532;BME280;3299;42.004;24.868;2023-05-09T05:42:32;98663.94;;;12.38;100.00
6532;BME280;3299;42.004;24.868;2023-05-09T05:44:58;98694.22;;;12.50;100.00
6532;BME280;3299;42.004;24.868;2023-05-09T05:47:31;98632.72;;;12.03;100.00
6532;BME280;3299;42.004;24.868;2023-05-09T05:49:57;98628.22;;;11.82;100.00
6532;BME280;3299;42.004;24.868;2023-05-09T05:52:23;98618.34;;;11.87;100.00
6532;BME280;3299;42.004;24.868;2023-05-09T05:54:48;98724.41;;;12.51;100.00
6532;BME280;3299;42.004;24.868;2023-05-09T05:57:13;98626.78;;;12.14;100.00
6532;BME280;3299;42.004;24.868;2023-05-09T05:59:42;98695.47;;;12.44;100.00
6532;BME280;3299;42.004;24.868;2023-05-09T06:02:07;98659.34;;;12.18;100.00
6532;BME280;3299;42.004;24.868;2023-05-09T06:04:32;98699.94;;;12.42;100.00
6532;BME280;3299;42.004;24.868;2023-05-09T06:06:58;98696.38;;;12.20;100.00
6532;BME280;3299;42.004;24.868;2023-05-09T06:09:23;98651.38;;;12.08;100.00
6532;BME280;3299;42.004;24.868;2023-05-09T06:11:49;98713.69;;;12.32;100.00
6532;BME280;3299;42.004;24.868;2023-05-09T06:14:15;98681.78;;;12.19;100.00
6532;BME280;3299;42.004;24.868;2023-05-09T06:16:41;98662.94;;;12.04;100.00
6532;BME280;3299;42.004;24.868;2023-05-09T06:19:06;98680.53;;;12.12;100.00
6532;BME280;3299;42.004;24.868;2023-05-09T06:21:32;98643.84;;;11.93;100.00
6532;BME280;3299;42.004;24.868;2023-05-09T06:24:01;98660.19;;;12.06;100.00
6532;BME280;3299;42.004;24.868;2023-05-09T06:26:28;98632.53;;;11.94;100.00
6532;BME280;3299;42.004;24.868;2023-05-09T06:28:53;98628.59;;;12.01;100.00
6532;BME280;3299;42.004;24.868;2023-05-09T06:31:19;98629.41;;;12.01;100.00
6532;BME280;3299;42.004;24.868;2023-05-09T06:33:44;98687.41;;;12.36;100.00
6532;BME280;3299;42.004;24.868;2023-05-09T06:36:09;98698.00;;;12.33;100.00
6532;BME280;3299;42.004;24.868;2023-05-09T06:38:35;98721.53;;;12.43;100.00
6532;BME280;3299;42.004;24.868;2023-05-09T06:41:01;98660.44;;;12.03;100.00
6532;BME280;3299;42.004;24.868;2023-05-09T06:43:26;98708.44;;;12.44;100.00
6532;BME280;3299;42.004;24.868;2023-05-09T06:45:52;98649.63;;;12.09;100.00
6532;BME280;3299;42.004;24.868;2023-05-09T06:48:18;98708.13;;;12.49;100.00
6532;BME280;3299;42.004;24.868;2023-05-09T06:50:43;98700.38;;;12.36;100.00
6532;BME280;3299;42.004;24.868;2023-05-09T06:53:08;98656.88;;;12.16;100.00
6532;BME280;3299;42.004;24.868;2023-05-09T06:55:34;98705.97;;;12.43;100.00
6532;BME280;3299;42.004;24.868;2023-05-09T06:57:59;98706.50;;;12.35;100.00
6532;BME280;3299;42.004;24.868;2023-05-09T07:00:25;98639.09;;;11.87;100.00
6532;BME280;3299;42.004;24.868;2023-05-09T07:02:51;98671.59;;;12.16;100.00
6532;BME280;3299;42.004;24.868;2023-05-09T07:05:16;98671.81;;;12.13;100.00
6532;BME280;3299;42.004;24.868;2023-05-09T07:07:41;98704.00;;;12.34;100.00
6532;BME280;3299;42.004;24.868;2023-05-09T07:10:07;98677.47;;;12.30;100.00
6532;BME280;3299;42.004;24.868;2023-05-09T07:12:33;98628.28;;;11.93;100.00
6532;BME280;3299;42.004;24.868;2023-05-09T07:14:58;98649.53;;;12.10;100.00
6532;BME280;3299;42.004;24.868;2023-05-09T07:17:24;98711.00;;;12.33;100.00
6532;BME280;3299;42.004;24.868;2023-05-09T07:19:50;98704.50;;;12.51;100.00
6532;BME280;3299;42.004;24.868;2023-05-09T07:22:16;98638.03;;;12.25;100.00
6532;BME280;3299;42.004;24.868;2023-05-09T07:24:41;98646.06;;;12.22;100.00
6532;BME280;3299;42.004;24.868;2023-05-09T07:27:08;98639.81;;;12.25;100.00
6532;BME280;3299;42.004;24.868;2023-05-09T07:29:34;98714.06;;;12.74;100.00
6532;BME280;3299;42.004;24.868;2023-05-09T07:32:00;98645.78;;;12.38;100.00
6532;BME280;3299;42.004;24.868;2023-05-09T07:34:25;98698.25;;;12.54;100.00
6532;BME280;3299;42.004;24.868;2023-05-09T07:36:51;98637.09;;;12.26;100.00
6532;BME280;3299;42.004;24.868;2023-05-09T07:39:16;98727.13;;;12.73;100.00
6532;BME280;3299;42.004;24.868;2023-05-09T07:41:42;98716.66;;;12.74;100.00
6532;BME280;3299;42.004;24.868;2023-05-09T07:44:07;98705.03;;;12.67;100.00
6532;BME280;3299;42.004;24.868;2023-05-09T07:46:34;98668.09;;;12.40;100.00
6532;BME280;3299;42.004;24.868;2023-05-09T07:49:02;98679.75;;;12.58;100.00
6532;BME280;3299;42.004;24.868;2023-05-09T07:51:27;98738.16;;;13.00;100.00
6532;BME280;3299;42.004;24.868;2023-05-09T07:53:53;98697.81;;;12.60;100.00
6532;BME280;3299;42.004;24.868;2023-05-09T07:56:20;98740.50;;;12.79;100.00
6532;BME280;3299;42.004;24.868;2023-05-09T07:58:47;98653.94;;;12.21;100.00
6532;BME280;3299;42.004;24.868;2023-05-09T08:01:12;98677.28;;;12.21;100.00
6532;BME280;3299;42.004;24.868;2023-05-09T08:03:37;98677.19;;;12.22;100.00
6532;BME280;3299;42.004;24.868;2023-05-09T08:06:03;98674.19;;;12.16;100.00
6532;BME280;3299;42.004;24.868;2023-05-09T08:08:28;98665.19;;;12.09;100.00
6532;BME280;3299;42.004;24.868;2023-05-09T08:10:55;98663.53;;;12.08;100.00
6532;BME280;3299;42.004;24.868;2023-05-09T08:13:20;98741.63;;;12.52;100.00
6532;BME280;3299;42.004;24.868;2023-05-09T08:15:47;98651.72;;;11.91;100.00
6532;BME280;3299;42.004;24.868;2023-05-09T08:18:12;98732.13;;;12.40;100.00
6532;BME280;3299;42.004;24.868;2023-05-09T08:20:37;98747.22;;;12.58;100.00
6532;BME280;3299;42.004;24.868;2023-05-09T08:23:03;98700.38;;;12.36;100.00
6532;BME280;3299;42.004;24.868;2023-05-09T08:25:28;98658.22;;;12.09;100.00
6532;BME280;3299;42.004;24.868;2023-05-09T08:27:54;98672.19;;;12.19;100.00
6532;BME280;3299;42.004;24.868;2023-05-09T08:30:19;98724.75;;;12.70;100.00
6532;BME280;3299;42.004;24.868;2023-05-09T08:32:44;98695.97;;;12.26;100.00
6532;BME280;3299;42.004;24.868;2023-05-09T08:35:10;98718.63;;;12.35;100.00
6532;BME280;3299;42.004;24.868;2023-05-09T08:37:36;98743.00;;;12.45;100.00
6532;BME280;3299;42.004;24.868;2023-05-09T08:40:04;98713.84;;;12.41;100.00
6532;BME280;3299;42.004;24.868;2023-05-09T08:42:35;98718.03;;;12.31;100.00
6532;BME280;3299;42.004;24.868;2023-05-09T08:45:12;98654.22;;;11.93;100.00
6532;BME280;3299;42.004;24.868;2023-05-09T08:47:41;98737.56;;;12.37;100.00
6532;BME280;3299;42.004;24.868;2023-05-09T08:50:09;98666.56;;;11.89;100.00
6532;BME280;3299;42.004;24.868;2023-05-09T08:52:36;98643.78;;;11.82;100.00
6532;BME280;3299;42.004;24.868;2023-05-09T08:55:02;98657.75;;;11.92;100.00
6532;BME280;3299;42.004;24.868;2023-05-09T08:57:32;98653.19;;;11.83;100.00
6532;BME280;3299;42.004;24.868;2023-05-09T08:59:59;98664.91;;;12.01;100.00
6532;BME280;3299;42.004;24.868;2023-05-09T09:02:25;98688.31;;;12.12;100.00
6532;BME280;3299;42.004;24.868;2023-05-09T09:04:50;98716.91;;;12.23;100.00
6532;BME280;3299;42.004;24.868;2023-05-09T09:07:16;98736.38;;;12.41;100.00
6532;BME280;3299;42.004;24.868;2023-05-09T09:09:46;98744.03;;;12.55;100.00
6532;BME280;3299;42.004;24.868;2023-05-09T09:12:14;98656.63;;;11.96;100.00
6532;BME280;3299;42.004;24.868;2023-05-09T09:14:44;98748.19;;;12.45;100.00
6532;BME280;3299;42.004;24.868;2023-05-09T09:17:11;98652.69;;;11.90;100.00
6532;BME280;3299;42.004;24.868;2023-05-09T09:19:39;98672.97;;;12.09;100.00
6532;BME280;3299;42.004;24.868;2023-05-09T09:22:09;98744.38;;;12.38;100.00
6532;BME280;3299;42.004;24.868;2023-05-09T09:24:37;98740.94;;;12.50;100.00
6532;BME280;3299;42.004;24.868;2023-05-09T09:27:06;98688.31;;;12.12;100.00
6532;BME280;3299;42.004;24.868;2023-05-09T09:29:32;98698.28;;;12.05;100.00
6532;BME280;3299;42.004;24.868;2023-05-09T09:32:01;98740.75;;;12.40;100.00
6532;BME280;3299;42.004;24.868;2023-05-09T09:34:27;98740.66;;;12.42;100.00
6532;BME280;3299;42.004;24.868;2023-05-09T09:36:52;98702.09;;;12.25;100.00
6532;BME280;3299;42.004;24.868;2023-05-09T09:39:18;98679.28;;;12.05;100.00
6532;BME280;3299;42.004;24.868;2023-05-09T09:41:43;98704.97;;;12.33;100.00
6532;BME280;3299;42.004;24.868;2023-05-09T09:44:13;98661.75;;;12.08;100.00
6532;BME280;3299;42.004;24.868;2023-05-09T09:49:15;98726.84;;;12.41;100.00
6532;BME280;3299;42.004;24.868;2023-05-09T09:51:41;98709.59;;;12.40;100.00
6532;BME280;3299;42.004;24.868;2023-05-09T09:54:07;98702.88;;;12.38;100.00
6532;BME280;3299;42.004;24.868;2023-05-09T09:56:44;98688.88;;;12.28;100.00
6532;BME280;3299;42.004;24.868;2023-05-09T09:59:12;98648.00;;;11.95;100.00
6532;BME280;3299;42.004;24.868;2023-05-09T10:04:24;98734.38;;;12.44;100.00
6532;BME280;3299;42.004;24.868;2023-05-09T10:06:53;98741.03;;;12.48;100.00
6532;BME280;3299;42.004;24.868;2023-05-09T10:09:20;98699.50;;;12.25;100.00
6532;BME280;3299;42.004;24.868;2023-05-09T10:11:48;98738.75;;;12.56;100.00
6532;BME280;3299;42.004;24.868;2023-05-09T10:14:14;98740.75;;;12.64;100.00
6532;BME280;3299;42.004;24.868;2023-05-09T10:16:41;98731.41;;;12.61;100.00
6532;BME280;3299;42.004;24.868;2023-05-09T10:19:08;98738.41;;;12.61;100.00
6532;BME280;3299;42.004;24.868;2023-05-09T10:21:36;98717.59;;;12.37;100.00
6532;BME280;3299;42.004;24.868;2023-05-09T10:24:02;98737.13;;;12.43;100.00
6532;BME280;3299;42.004;24.868;2023-05-09T10:26:31;98698.75;;;12.23;100.00
6532;BME280;3299;42.004;24.868;2023-05-09T10:29:00;98691.56;;;12.03;100.00
6532;BME280;3299;42.004;24.868;2023-05-09T10:31:31;98708.84;;;12.15;100.00
6532;BME280;3299;42.004;24.868;2023-05-09T10:34:00;98756.53;;;12.37;100.00
6532;BME280;3299;42.004;24.868;2023-05-09T10:36:29;98662.50;;;11.98;100.00
6532;BME280;3299;42.004;24.868;2023-05-09T10:38:55;98758.47;;;12.46;100.00
6532;BME280;3299;42.004;24.868;2023-05-09T10:41:21;98773.00;;;12.49;100.00
6532;BME280;3299;42.004;24.868;2023-05-09T10:43:46;98744.91;;;12.43;100.00
6532;BME280;3299;42.004;24.868;2023-05-09T10:46:13;98716.09;;;12.22;100.00
6532;BME280;3299;42.004;24.868;2023-05-09T10:48:40;98744.75;;;12.57;100.00
6532;BME280;3299;42.004;24.868;2023-05-09T10:51:06;98726.50;;;12.46;100.00
6532;BME280;3299;42.004;24.868;2023-05-09T10:53:43;98746.63;;;12.55;100.00
6532;BME280;3299;42.004;24.868;2023-05-09T10:56:22;98745.41;;;12.48;100.00
6532;BME280;3299;42.004;24.868;2023-05-09T10:58:47;98665.00;;;11.99;100.00
6532;BME280;3299;42.004;24.868;2023-05-09T11:01:13;98743.34;;;12.40;100.00
6532;BME280;3299;42.004;24.868;2023-05-09T11:03:57;98746.56;;;12.44;100.00
6532;BME280;3299;42.004;24.868;2023-05-09T11:09:32;98751.72;;;12.56;100.00
6532;BME280;3299;42.004;24.868;2023-05-09T11:12:19;98684.59;;;12.03;100.00
6532;BME280;3299;42.004;24.868;2023-05-09T11:14:47;98696.50;;;12.18;100.00
6532;BME280;3299;42.004;24.868;2023-05-09T11:22:26;98747.00;;;12.61;100.00
6532;BME280;3299;42.004;24.868;2023-05-09T11:30:08;98746.53;;;12.80;100.00
6532;BME280;3299;42.004;24.868;2023-05-09T11:32:41;98684.28;;;12.44;100.00
6532;BME280;3299;42.004;24.868;2023-05-09T11:35:10;98715.09;;;12.72;100.00
6532;BME280;3299;42.004;24.868;2023-05-09T11:40:26;98659.69;;;12.37;100.00
6532;BME280;3299;42.004;24.868;2023-05-09T11:42:53;98746.75;;;12.77;100.00
6532;BME280;3299;42.004;24.868;2023-05-09T11:45:20;98675.72;;;12.31;100.00
6532;BME280;3299;42.004;24.868;2023-05-09T11:47:47;98747.38;;;12.80;100.00
6532;BME280;3299;42.004;24.868;2023-05-09T11:50:14;98736.72;;;12.83;100.00
6532;BME280;3299;42.004;24.868;2023-05-09T11:52:40;98702.59;;;12.53;100.00
6532;BME280;3299;42.004;24.868;2023-05-09T11:55:07;98720.00;;;12.64;100.00
6532;BME280;3299;42.004;24.868;2023-05-09T11:57:34;98725.19;;;12.64;100.00
6532;BME280;3299;42.004;24.868;2023-05-09T12:00:00;98656.91;;;12.04;100.00
6532;BME280;3299;42.004;24.868;2023-05-09T12:02:27;98696.75;;;12.39;100.00
6532;BME280;3299;42.004;24.868;2023-05-09T12:04:53;98652.50;;;12.17;100.00
6532;BME280;3299;42.004;24.868;2023-05-09T12:07:19;98684.19;;;12.33;100.00
6532;BME280;3299;42.004;24.868;2023-05-09T12:09:44;98733.03;;;12.75;100.00
6532;BME280;3299;42.004;24.868;2023-05-09T12:12:13;98724.31;;;12.76;100.00
6532;BME280;3299;42.004;24.868;2023-05-09T12:14:40;98648.75;;;12.21;100.00
6532;BME280;3299;42.004;24.868;2023-05-09T12:17:08;98643.84;;;12.29;100.00
6532;BME280;3299;42.004;24.868;2023-05-09T12:19:34;98642.03;;;12.42;100.00
6532;BME280;3299;42.004;24.868;2023-05-09T12:22:02;98699.34;;;12.62;100.00
6532;BME280;3299;42.004;24.868;2023-05-09T12:24:29;98656.88;;;12.40;100.00
6532;BME280;3299;42.004;24.868;2023-05-09T12:26:56;98633.50;;;12.40;100.00
6532;BME280;3299;42.004;24.868;2023-05-09T12:29:22;98679.75;;;12.58;100.00
6532;BME280;3299;42.004;24.868;2023-05-09T12:31:48;98710.41;;;12.77;100.00
6532;BME280;3299;42.004;24.868;2023-05-09T12:34:14;98643.28;;;12.36;100.00
6532;BME280;3299;42.004;24.868;2023-05-09T12:36:43;98683.44;;;12.67;100.00
6532;BME280;3299;42.004;24.868;2023-05-09T12:39:16;98628.38;;;12.51;100.00
6532;BME280;3299;42.004;24.868;2023-05-09T12:41:46;98633.72;;;12.60;100.00
6532;BME280;3299;42.004;24.868;2023-05-09T12:44:23;98699.31;;;12.98;100.00
6532;BME280;3299;42.004;24.868;2023-05-09T12:46:55;98623.09;;;12.52;100.00
6532;BME280;3299;42.004;24.868;2023-05-09T12:49:21;98663.22;;;12.83;100.00
6532;BME280;3299;42.004;24.868;2023-05-09T12:51:48;98698.00;;;13.04;100.00
6532;BME280;3299;42.004;24.868;2023-05-09T12:54:19;98622.63;;;12.58;100.00
6532;BME280;3299;42.004;24.868;2023-05-09T12:56:45;98696.97;;;13.06;100.00
6532;BME280;3299;42.004;24.868;2023-05-09T12:59:11;98711.56;;;13.31;100.00
6532;BME280;3299;42.004;24.868;2023-05-09T13:01:39;98708.03;;;13.43;100.00
6532;BME280;3299;42.004;24.868;2023-05-09T13:04:05;98640.66;;;13.07;100.00
6532;BME280;3299;42.004;24.868;2023-05-09T13:06:32;98612.81;;;12.85;100.00
6532;BME280;3299;42.004;24.868;2023-05-09T13:08:59;98692.44;;;13.43;100.00
6532;BME280;3299;42.004;24.868;2023-05-09T13:11:25;98608.03;;;13.03;100.00
6532;BME280;3299;42.004;24.868;2023-05-09T13:13:53;98609.22;;;13.10;100.00
6532;BME280;3299;42.004;24.868;2023-05-09T13:16:18;98651.78;;;13.31;100.00
6532;BME280;3299;42.004;24.868;2023-05-09T13:18:44;98674.94;;;13.45;100.00
6532;BME280;3299;42.004;24.868;2023-05-09T13:21:09;98669.88;;;13.43;100.00
6532;BME280;3299;42.004;24.868;2023-05-09T13:23:35;98601.41;;;12.99;100.00
6532;BME280;3299;42.004;24.868;2023-05-09T13:26:00;98609.69;;;13.04;100.00
6532;BME280;3299;42.004;24.868;2023-05-09T13:28:25;98663.97;;;13.41;100.00
6532;BME280;3299;42.004;24.868;2023-05-09T13:30:51;98665.50;;;13.44;100.00
6532;BME280;3299;42.004;24.868;2023-05-09T13:33:16;98623.41;;;13.28;100.00
6532;BME280;3299;42.004;24.868;2023-05-09T13:35:42;98603.22;;;13.09;100.00